createdAt,value
2023-03-22T00:01:55.489Z,59.81
2023-03-22T00:04:57.038Z,59.84
2023-03-22T00:07:58.908Z,59.85
2023-03-22T00:11:00.614Z,59.80
2023-03-22T00:14:02.194Z,59.87
2023-03-22T00:17:03.812Z,59.85
2023-03-22T00:20:08.917Z,59.78
2023-03-22T00:23:10.658Z,59.90
2023-03-22T00:26:13.657Z,60.04
2023-03-22T00:29:16.225Z,59.94
2023-03-22T00:32:17.857Z,60.05
2023-03-22T00:35:19.545Z,59.81
2023-03-22T00:38:27.282Z,59.83
2023-03-22T00:41:34.241Z,59.93
2023-03-22T00:44:36.084Z,60.15
2023-03-22T00:47:37.995Z,59.98
2023-03-22T00:50:41.155Z,60.04
2023-03-22T00:53:43.841Z,59.92
2023-03-22T00:56:45.534Z,60.01
2023-03-22T00:59:47.471Z,60.06
2023-03-22T01:02:49.192Z,60.19
2023-03-22T01:05:55.597Z,60.14
2023-03-22T01:08:57.337Z,59.98
2023-03-22T01:11:59.848Z,60.07
2023-03-22T01:15:01.598Z,60.12
2023-03-22T01:18:03.668Z,60.03
2023-03-22T01:21:05.938Z,60.07
2023-03-22T01:24:07.819Z,60.02
2023-03-22T01:27:09.410Z,60.16
2023-03-22T01:30:11.821Z,60.13
2023-03-22T01:33:13.378Z,60.11
2023-03-22T01:36:14.921Z,60.13
2023-03-22T01:39:16.664Z,60.03
2023-03-22T01:42:21.015Z,60.10
2023-03-22T01:45:43.488Z,60.12
2023-03-22T01:48:46.442Z,60.13
2023-03-22T01:51:50.616Z,60.14
2023-03-22T01:54:54.002Z,60.31
2023-03-22T01:57:55.805Z,60.20
2023-03-22T02:00:58.405Z,60.31
2023-03-22T02:04:09.495Z,60.16
2023-03-22T02:07:15.875Z,60.28
2023-03-22T02:10:24.476Z,60.14
2023-03-22T02:13:48.633Z,60.08
2023-03-22T02:17:12.068Z,60.11
2023-03-22T02:20:41.865Z,60.32
2023-03-22T02:24:23.552Z,60.32
2023-03-22T02:27:34.418Z,60.21
2023-03-22T02:30:44.833Z,60.09
2023-03-22T02:34:17.335Z,60.24
2023-03-22T02:37:36.804Z,60.34
2023-03-22T02:40:54.209Z,60.27
2023-03-22T02:44:52.608Z,60.15
2023-03-22T02:48:12.709Z,60.22
2023-03-22T02:51:26.198Z,60.37
2023-03-22T02:54:39.794Z,60.42
2023-03-22T02:57:52.202Z,60.47
2023-03-22T03:00:59.563Z,60.32
2023-03-22T03:04:05.765Z,60.26
2023-03-22T03:07:09.932Z,60.15
2023-03-22T03:10:15.122Z,60.28
2023-03-22T03:13:18.753Z,60.36
2023-03-22T03:16:22.836Z,60.35
2023-03-22T03:19:35.826Z,60.40
2023-03-22T03:23:16.565Z,60.24
2023-03-22T03:26:24.003Z,60.24
2023-03-22T03:29:42.906Z,60.41
2023-03-22T03:33:00.875Z,60.29
2023-03-22T03:36:07.509Z,60.41
2023-03-22T03:39:12.587Z,60.33
2023-03-22T03:42:16.565Z,60.32
2023-03-22T03:45:19.755Z,60.20
2023-03-22T03:48:33.270Z,60.32
2023-03-22T03:51:46.878Z,60.35
2023-03-22T03:54:48.403Z,60.33
2023-03-22T03:57:50.007Z,60.17
2023-03-22T04:00:51.798Z,60.17
2023-03-22T04:03:55.494Z,60.30
2023-03-22T04:06:59.102Z,60.33
2023-03-22T04:10:00.781Z,60.36
2023-03-22T04:13:02.473Z,60.26
2023-03-22T04:16:04.131Z,60.30
2023-03-22T04:19:05.863Z,60.18
2023-03-22T04:22:07.526Z,60.20
2023-03-22T04:25:11.987Z,60.23
2023-03-22T04:28:13.807Z,60.16
2023-03-22T04:31:15.446Z,60.25
2023-03-22T04:34:17.066Z,60.32
2023-03-22T04:37:19.987Z,60.16
2023-03-22T04:40:21.670Z,60.31
2023-03-22T04:43:23.431Z,60.17
2023-03-22T04:46:25.292Z,60.14
2023-03-22T04:49:27.204Z,60.19
2023-03-22T04:52:28.801Z,60.09
2023-03-22T04:55:30.321Z,60.19
2023-03-22T04:58:31.907Z,60.33
2023-03-22T05:01:35.307Z,60.22
2023-03-22T05:04:36.942Z,60.21
2023-03-22T05:07:39.295Z,60.20
2023-03-22T05:10:41.469Z,60.38
2023-03-22T05:13:43.493Z,60.29
2023-03-22T05:16:45.288Z,60.21
2023-03-22T05:19:47.774Z,60.10
2023-03-22T05:22:50.564Z,60.14
2023-03-22T05:25:53.460Z,60.47
2023-03-22T05:28:55.823Z,60.43
2023-03-22T05:31:57.330Z,60.27
2023-03-22T05:35:03.619Z,60.34
2023-03-22T05:38:06.328Z,60.22
2023-03-22T05:41:08.169Z,60.35
2023-03-22T05:44:09.733Z,60.18
2023-03-22T05:47:11.455Z,60.20
2023-03-22T05:50:19.607Z,60.04
2023-03-22T05:53:21.217Z,60.37
2023-03-22T05:56:24.399Z,60.37
2023-03-22T05:59:26.275Z,60.18
2023-03-22T06:02:28.457Z,60.33
2023-03-22T06:05:31.857Z,60.22
2023-03-22T06:08:33.986Z,60.21
2023-03-22T06:11:35.564Z,60.16
2023-03-22T06:14:37.597Z,60.14
2023-03-22T06:17:39.359Z,60.13
2023-03-22T06:20:41.751Z,60.00
2023-03-22T06:23:44.069Z,60.70
2023-03-22T06:26:45.664Z,60.27
2023-03-22T06:29:50.862Z,60.28
2023-03-22T06:32:52.566Z,60.13
2023-03-22T06:35:54.150Z,60.19
2023-03-22T06:38:57.149Z,60.17
2023-03-22T06:41:58.724Z,60.30
2023-03-22T06:45:01.114Z,60.22
2023-03-22T06:48:02.980Z,60.08
2023-03-22T06:51:04.952Z,60.15
2023-03-22T06:54:06.500Z,60.38
2023-03-22T06:57:08.128Z,60.12
2023-03-22T07:00:10.775Z,60.20
2023-03-22T07:03:12.397Z,60.23
2023-03-22T07:06:14.161Z,60.11
2023-03-22T07:09:15.857Z,60.31
2023-03-22T07:12:18.711Z,60.20
2023-03-22T07:15:24.495Z,60.19
2023-03-22T07:18:26.875Z,60.26
2023-03-22T07:21:28.731Z,60.04
2023-03-22T07:24:30.384Z,60.20
2023-03-22T07:27:31.923Z,60.23
2023-03-22T07:30:37.508Z,60.12
2023-03-22T07:33:39.769Z,60.04
2023-03-22T07:36:41.369Z,60.19
2023-03-22T07:39:43.007Z,60.24
2023-03-22T07:42:44.659Z,60.06
2023-03-22T07:45:46.200Z,60.22
2023-03-22T07:48:47.782Z,60.21
2023-03-22T07:51:49.316Z,60.24
2023-03-22T07:54:50.866Z,60.31
2023-03-22T07:57:53.743Z,60.24
2023-03-22T08:00:55.462Z,60.11
2023-03-22T08:03:57.046Z,60.05
2023-03-22T08:06:58.738Z,59.96
2023-03-22T08:10:00.511Z,60.00
2023-03-22T08:13:02.050Z,60.02
2023-03-22T08:16:03.788Z,60.00
2023-03-22T08:19:05.616Z,59.81
2023-03-22T08:22:08.121Z,59.86
2023-03-22T08:25:10.650Z,59.91
2023-03-22T08:28:13.532Z,59.85
2023-03-22T08:31:17.174Z,59.88
2023-03-22T08:34:18.901Z,59.84
2023-03-22T08:37:20.475Z,59.83
2023-03-22T08:40:26.019Z,59.72
2023-03-22T08:43:27.668Z,59.84
2023-03-22T08:46:29.251Z,59.74
2023-03-22T08:49:31.558Z,59.77
2023-03-22T08:52:33.315Z,59.71
2023-03-22T08:55:37.691Z,59.75
2023-03-22T08:58:39.515Z,59.72
2023-03-22T09:01:41.164Z,59.53
2023-03-22T09:04:44.200Z,59.60
2023-03-22T09:07:45.798Z,59.50
2023-03-22T09:10:51.450Z,59.63
2023-03-22T09:13:53.216Z,59.59
2023-03-22T09:16:54.739Z,59.52
2023-03-22T09:20:11.181Z,59.49
2023-03-22T09:23:15.535Z,59.74
2023-03-22T09:26:17.092Z,59.46
2023-03-22T09:29:19.573Z,59.51
2023-03-22T09:32:21.178Z,59.38
2023-03-22T09:35:23.261Z,59.18
2023-03-22T09:38:25.482Z,59.19
2023-03-22T09:41:38.616Z,59.15
2023-03-22T09:44:43.224Z,59.07
2023-03-22T09:47:48.997Z,59.11
2023-03-22T09:50:54.883Z,59.22
2023-03-22T09:53:56.449Z,59.20
2023-03-22T09:57:16.312Z,59.20
2023-03-22T10:00:22.031Z,59.17
2023-03-22T10:03:51.865Z,59.22
2023-03-22T10:07:34.089Z,59.10
2023-03-22T10:10:37.285Z,59.05
2023-03-22T10:13:49.010Z,59.17
2023-03-22T10:16:56.437Z,58.88
2023-03-22T10:20:06.276Z,58.77
2023-03-22T10:23:14.437Z,58.76
2023-03-22T10:26:26.551Z,58.98
2023-03-22T10:29:33.981Z,58.76
2023-03-22T10:32:57.188Z,58.69
2023-03-22T10:36:02.108Z,58.47
2023-03-22T10:39:36.372Z,58.70
2023-03-22T10:42:39.461Z,58.67
2023-03-22T10:45:42.721Z,58.60
2023-03-22T10:48:46.577Z,58.40
2023-03-22T10:51:50.537Z,58.30
2023-03-22T10:54:52.618Z,58.38
2023-03-22T10:58:13.884Z,58.43
2023-03-22T11:01:26.007Z,58.28
2023-03-22T11:04:31.360Z,58.18
2023-03-22T11:07:39.725Z,58.40
2023-03-22T11:10:41.382Z,58.31
2023-03-22T11:13:43.250Z,58.02
2023-03-22T11:17:17.173Z,58.16
2023-03-22T11:20:20.629Z,58.37
2023-03-22T11:23:24.203Z,58.20
2023-03-22T11:26:29.807Z,58.05
2023-03-22T11:29:42.262Z,57.83
2023-03-22T11:32:43.877Z,57.73
2023-03-22T11:35:55.312Z,57.94
2023-03-22T11:39:02.354Z,57.40
2023-03-22T11:42:06.573Z,57.46
2023-03-22T11:45:14.497Z,57.66
2023-03-22T11:48:21.263Z,57.50
2023-03-22T11:51:30.926Z,57.46
2023-03-22T11:54:36.357Z,57.78
2023-03-22T11:57:38.086Z,57.59
2023-03-22T12:00:40.816Z,57.64
2023-03-22T12:03:44.151Z,57.78
2023-03-22T12:06:46.178Z,57.85
2023-03-22T12:10:03.292Z,57.67
2023-03-22T12:13:15.849Z,57.88
2023-03-22T12:16:24.867Z,57.76
2023-03-22T12:19:41.987Z,57.92
2023-03-22T12:22:51.310Z,58.10
2023-03-22T12:26:00.443Z,57.93
2023-03-22T12:29:06.088Z,57.95
2023-03-22T12:32:19.528Z,58.05
2023-03-22T12:35:36.976Z,58.06
2023-03-22T12:38:48.778Z,58.14
2023-03-22T12:41:52.983Z,58.00
2023-03-22T12:45:05.477Z,58.13
2023-03-22T12:48:33.671Z,58.07
2023-03-22T12:51:36.655Z,58.03
2023-03-22T12:54:38.610Z,58.13
2023-03-22T12:57:40.399Z,58.25
2023-03-22T13:00:48.547Z,58.05
2023-03-22T13:03:53.728Z,58.17
2023-03-22T13:07:11.734Z,58.18
2023-03-22T13:10:36.537Z,58.15
2023-03-22T13:13:46.756Z,58.00
2023-03-22T13:16:53.098Z,58.20
2023-03-22T13:20:23.704Z,58.05
2023-03-22T13:23:27.150Z,57.95
2023-03-22T13:26:58.416Z,58.13
2023-03-22T13:30:00.250Z,57.76
2023-03-22T13:33:03.515Z,58.07
2023-03-22T13:36:08.546Z,58.09
2023-03-22T13:39:12.590Z,58.05
2023-03-22T13:42:23.188Z,57.97
2023-03-22T13:45:34.001Z,58.03
2023-03-22T13:48:48.074Z,58.15
2023-03-22T13:51:51.362Z,58.09
2023-03-22T13:54:57.222Z,58.08
2023-03-22T13:57:59.901Z,58.07
2023-03-22T14:01:04.651Z,58.19
2023-03-22T14:04:16.404Z,58.03
2023-03-22T14:07:32.954Z,58.20
2023-03-22T14:10:43.360Z,58.18
2023-03-22T14:13:53.598Z,58.11
2023-03-22T14:17:05.010Z,58.19
2023-03-22T14:20:10.933Z,58.16
